createdAt,value
2022-07-28T01:34:12.503Z,2.58
2022-07-28T01:49:12.257Z,3.44
2022-07-28T02:04:12.465Z,3.35
2022-07-28T02:19:12.193Z,3.37
2022-07-28T02:34:12.620Z,2.87
2022-07-28T02:49:12.491Z,2.99
2022-07-28T03:04:12.691Z,3.07
2022-07-28T03:19:12.293Z,2.85
2022-07-28T03:34:12.731Z,3.79
2022-07-28T03:49:17.363Z,3.77
2022-07-28T04:04:12.777Z,3.03
2022-07-28T04:19:12.764Z,3.30
2022-07-28T04:34:12.880Z,3.25
2022-07-28T04:49:12.677Z,3.04
2022-07-28T05:04:13.528Z,3.45
2022-07-28T05:19:12.935Z,3.25
2022-07-28T05:34:13.246Z,3.07
2022-07-28T05:49:12.865Z,3.17
2022-07-28T06:04:27.211Z,3.13
2022-07-28T06:19:12.805Z,3.27
2022-07-28T06:34:13.100Z,4.22
2022-07-28T06:49:13.453Z,3.91
2022-07-28T07:04:13.404Z,3.31
2022-07-28T07:19:15.880Z,4.69
2022-07-28T07:34:15.143Z,4.87
2022-07-28T07:49:12.996Z,4.23
2022-07-28T08:04:13.796Z,4.86
2022-07-28T08:19:13.249Z,4.43
2022-07-28T08:34:32.453Z,5.07
2022-07-28T08:49:14.939Z,3.84
2022-07-28T09:04:13.721Z,4.11
2022-07-28T09:19:13.467Z,4.17
2022-07-28T09:34:13.600Z,4.67
2022-07-28T09:49:13.683Z,4.86
2022-07-28T10:04:15.056Z,4.69
2022-07-28T10:19:13.533Z,4.80
2022-07-28T10:34:16.134Z,4.87
2022-07-28T10:49:13.980Z,4.24
2022-07-28T11:04:14.544Z,4.58
2022-07-28T11:19:40.330Z,4.16
2022-07-28T11:34:14.571Z,3.81
2022-07-28T11:49:14.696Z,4.18
2022-07-28T12:04:14.861Z,4.21
2022-07-28T12:19:14.598Z,3.64
2022-07-28T12:34:14.790Z,3.00
2022-07-28T12:49:14.447Z,3.45
2022-07-28T13:04:14.767Z,3.35
2022-07-28T13:19:14.770Z,3.40
2022-07-28T13:34:14.683Z,2.97
2022-07-28T13:49:14.569Z,3.41
2022-07-28T14:04:17.239Z,4.12
2022-07-28T14:19:14.582Z,2.43
2022-07-28T14:34:15.311Z,2.84
2022-07-28T14:49:14.808Z,3.29
2022-07-28T15:04:15.171Z,2.87
2022-07-28T15:19:14.775Z,3.24
2022-07-28T15:34:15.089Z,3.50
2022-07-28T15:49:15.055Z,2.73
2022-07-28T16:04:15.137Z,2.67
2022-07-28T16:19:38.592Z,3.88
2022-07-28T16:34:15.456Z,2.07
2022-07-28T16:49:15.269Z,2.45
2022-07-28T17:04:16.136Z,3.01
2022-07-28T17:19:15.080Z,3.44
2022-07-28T17:34:15.463Z,3.24
2022-07-28T17:49:15.172Z,3.10
2022-07-28T18:04:15.742Z,2.53
2022-07-28T18:19:15.221Z,2.95
2022-07-28T18:34:15.743Z,2.13
2022-07-28T18:49:15.529Z,2.38
2022-07-28T19:04:15.832Z,2.34
2022-07-28T19:19:15.550Z,2.21
2022-07-28T19:34:16.094Z,2.50
2022-07-28T19:49:15.759Z,1.66
2022-07-28T20:04:15.821Z,1.78
2022-07-28T20:19:15.725Z,1.89
2022-07-28T20:34:15.994Z,2.15
2022-07-28T20:49:15.922Z,2.10
2022-07-28T21:04:15.769Z,1.94
2022-07-28T21:19:15.676Z,3.20
2022-07-28T21:34:16.173Z,3.99
2022-07-28T21:49:16.068Z,3.16
2022-07-28T22:04:18.482Z,4.11
2022-07-28T22:19:17.617Z,3.28
2022-07-28T22:34:17.818Z,3.49
2022-07-28T22:49:17.758Z,3.73
2022-07-28T23:04:17.924Z,3.56
2022-07-28T23:19:17.931Z,3.49
2022-07-28T23:34:16.636Z,3.90
2022-07-28T23:49:16.442Z,3.70
